sensor_id;sensor_type;location;lat;lon;timestamp;pressure;altitude;pressure_sealevel;temperature;humidity
74524;BME280;63074;44.696;10.358;2022-09-09T00:03:44;99552.72;;;18.79;100.00
74524;BME280;63074;44.696;10.358;2022-09-09T00:06:24;99547.59;;;18.92;100.00
74524;BME280;63074;44.696;10.358;2022-09-09T00:09:08;99552.72;;;18.66;100.00
74524;BME280;63074;44.696;10.358;2022-09-09T00:14:54;99550.66;;;18.58;100.00
74524;BME280;63074;44.696;10.358;2022-09-09T00:19:58;99551.53;;;18.85;100.00
74524;BME280;63074;44.696;10.358;2022-09-09T00:22:27;99552.41;;;18.81;100.00
74524;BME280;63074;44.696;10.358;2022-09-09T00:25:03;99558.38;;;18.83;100.00
74524;BME280;63074;44.696;10.358;2022-09-09T00:27:44;99547.41;;;19.02;100.00
74524;BME280;63074;44.696;10.358;2022-09-09T00:30:15;99551.22;;;18.87;100.00
74524;BME280;63074;44.696;10.358;2022-09-09T00:32:44;99552.63;;;18.84;100.00
74524;BME280;63074;44.696;10.358;2022-09-09T00:37:35;99538.13;;;18.89;100.00
74524;BME280;63074;44.696;10.358;2022-09-09T00:40:03;99542.25;;;18.86;100.00
74524;BME280;63074;44.696;10.358;2022-09-09T00:42:42;99548.97;;;18.62;100.00
74524;BME280;63074;44.696;10.358;2022-09-09T00:45:17;99534.88;;;18.27;100.00
74524;BME280;63074;44.696;10.358;2022-09-09T00:47:51;99536.13;;;18.48;100.00
74524;BME280;63074;44.696;10.358;2022-09-09T00:50:39;99531.75;;;18.66;100.00
74524;BME280;63074;44.696;10.358;2022-09-09T00:56:35;99536.91;;;18.68;100.00
74524;BME280;63074;44.696;10.358;2022-09-09T01:01:35;99537.88;;;18.12;100.00
74524;BME280;63074;44.696;10.358;2022-09-09T01:04:02;99537.06;;;18.11;100.00
74524;BME280;63074;44.696;10.358;2022-09-09T01:06:33;99548.59;;;18.36;100.00
74524;BME280;63074;44.696;10.358;2022-09-09T01:17:06;99533.69;;;18.66;100.00
74524;BME280;63074;44.696;10.358;2022-09-09T01:19:45;99529.84;;;18.67;100.00
74524;BME280;63074;44.696;10.358;2022-09-09T01:22:44;99526.47;;;18.42;100.00
74524;BME280;63074;44.696;10.358;2022-09-09T01:25:56;99521.19;;;18.18;100.00
74524;BME280;63074;44.696;10.358;2022-09-09T01:28:22;99530.69;;;18.02;100.00
74524;BME280;63074;44.696;10.358;2022-09-09T01:30:50;99522.19;;;17.71;100.00
74524;BME280;63074;44.696;10.358;2022-09-09T01:33:17;99526.31;;;17.69;100.00
74524;BME280;63074;44.696;10.358;2022-09-09T01:38:12;99524.31;;;17.55;100.00
74524;BME280;63074;44.696;10.358;2022-09-09T01:40:38;99524.91;;;17.71;100.00
74524;BME280;63074;44.696;10.358;2022-09-09T01:43:04;99517.25;;;17.54;100.00
74524;BME280;63074;44.696;10.358;2022-09-09T01:45:31;99521.00;;;17.40;100.00
74524;BME280;63074;44.696;10.358;2022-09-09T01:47:57;99512.91;;;17.35;100.00
74524;BME280;63074;44.696;10.358;2022-09-09T01:50:23;99517.25;;;17.36;100.00
74524;BME280;63074;44.696;10.358;2022-09-09T01:52:53;99512.03;;;17.20;100.00
74524;BME280;63074;44.696;10.358;2022-09-09T01:55:32;99508.66;;;17.29;100.00
74524;BME280;63074;44.696;10.358;2022-09-09T02:00:49;99499.19;;;17.26;100.00
74524;BME280;63074;44.696;10.358;2022-09-09T02:03:25;99504.63;;;16.83;100.00
74524;BME280;63074;44.696;10.358;2022-09-09T02:11:12;99506.38;;;17.17;100.00
74524;BME280;63074;44.696;10.358;2022-09-09T02:13:39;99506.66;;;17.34;100.00
74524;BME280;63074;44.696;10.358;2022-09-09T02:16:21;99511.16;;;17.44;100.00
74524;BME280;63074;44.696;10.358;2022-09-09T02:18:55;99514.53;;;17.36;100.00
74524;BME280;63074;44.696;10.358;2022-09-09T02:21:23;99516.75;;;17.71;100.00
74524;BME280;63074;44.696;10.358;2022-09-09T02:23:50;99517.63;;;17.48;100.00
74524;BME280;63074;44.696;10.358;2022-09-09T02:26:19;99519.38;;;17.39;100.00
74524;BME280;63074;44.696;10.358;2022-09-09T02:28:50;99510.13;;;17.21;100.00
74524;BME280;63074;44.696;10.358;2022-09-09T02:31:19;99508.69;;;17.05;100.00
74524;BME280;63074;44.696;10.358;2022-09-09T02:33:49;99517.72;;;17.00;100.00
74524;BME280;63074;44.696;10.358;2022-09-09T02:36:17;99518.41;;;16.87;100.00
74524;BME280;63074;44.696;10.358;2022-09-09T02:38:46;99518.56;;;17.19;100.00
74524;BME280;63074;44.696;10.358;2022-09-09T02:41:18;99526.25;;;17.12;100.00
74524;BME280;63074;44.696;10.358;2022-09-09T02:43:44;99520.03;;;16.88;100.00
74524;BME280;63074;44.696;10.358;2022-09-09T02:49:19;99516.22;;;16.36;100.00
74524;BME280;63074;44.696;10.358;2022-09-09T02:52:08;99509.88;;;16.75;100.00
74524;BME280;63074;44.696;10.358;2022-09-09T02:54:38;99510.81;;;16.60;100.00
74524;BME280;63074;44.696;10.358;2022-09-09T02:57:16;99508.84;;;16.95;100.00
74524;BME280;63074;44.696;10.358;2022-09-09T02:59:44;99509.19;;;16.88;100.00
74524;BME280;63074;44.696;10.358;2022-09-09T03:02:10;99507.63;;;16.82;100.00
74524;BME280;63074;44.696;10.358;2022-09-09T03:04:37;99508.84;;;16.95;100.00
74524;BME280;63074;44.696;10.358;2022-09-09T03:07:02;99510.66;;;16.75;100.00
74524;BME280;63074;44.696;10.358;2022-09-09T03:09:29;99508.28;;;17.16;100.00
74524;BME280;63074;44.696;10.358;2022-09-09T03:11:54;99514.06;;;17.10;100.00
74524;BME280;63074;44.696;10.358;2022-09-09T03:14:21;99517.38;;;16.83;100.00
74524;BME280;63074;44.696;10.358;2022-09-09T03:16:50;99507.88;;;17.28;100.00
74524;BME280;63074;44.696;10.358;2022-09-09T03:19:15;99514.88;;;17.10;100.00
74524;BME280;63074;44.696;10.358;2022-09-09T03:21:41;99502.59;;;16.94;100.00
74524;BME280;63074;44.696;10.358;2022-09-09T03:24:06;99507.88;;;17.04;100.00
74524;BME280;63074;44.696;10.358;2022-09-09T03:26:32;99502.09;;;16.92;100.00
74524;BME280;63074;44.696;10.358;2022-09-09T03:28:58;99501.50;;;16.95;100.00
74524;BME280;63074;44.696;10.358;2022-09-09T03:31:25;99494.16;;;16.96;100.00
74524;BME280;63074;44.696;10.358;2022-09-09T03:33:51;99493.53;;;16.80;100.00
74524;BME280;63074;44.696;10.358;2022-09-09T03:36:16;99499.31;;;17.16;100.00
74524;BME280;63074;44.696;10.358;2022-09-09T03:38:42;99500.94;;;16.98;100.00
74524;BME280;63074;44.696;10.358;2022-09-09T03:41:07;99491.81;;;17.08;100.00
74524;BME280;63074;44.696;10.358;2022-09-09T03:43:33;99489.63;;;17.10;100.00
74524;BME280;63074;44.696;10.358;2022-09-09T03:45:58;99496.53;;;17.40;100.00
74524;BME280;63074;44.696;10.358;2022-09-09T03:48:24;99503.00;;;17.44;100.00
74524;BME280;63074;44.696;10.358;2022-09-09T03:50:52;99501.25;;;17.34;100.00
74524;BME280;63074;44.696;10.358;2022-09-09T03:53:20;99492.06;;;17.49;100.00
74524;BME280;63074;44.696;10.358;2022-09-09T03:55:48;99491.41;;;17.38;100.00
74524;BME280;63074;44.696;10.358;2022-09-09T03:58:14;99498.53;;;17.15;100.00
74524;BME280;63074;44.696;10.358;2022-09-09T04:00:40;99505.38;;;16.89;100.00
74524;BME280;63074;44.696;10.358;2022-09-09T04:03:11;99505.88;;;16.91;100.00
74524;BME280;63074;44.696;10.358;2022-09-09T04:05:39;99497.84;;;16.57;100.00
74524;BME280;63074;44.696;10.358;2022-09-09T04:08:07;99489.69;;;16.57;100.00
74524;BME280;63074;44.696;10.358;2022-09-09T04:10:34;99492.22;;;16.48;100.00
74524;BME280;63074;44.696;10.358;2022-09-09T04:13:01;99489.38;;;16.11;100.00
74524;BME280;63074;44.696;10.358;2022-09-09T04:15:26;99485.25;;;15.84;100.00
74524;BME280;63074;44.696;10.358;2022-09-09T04:17:53;99482.16;;;15.96;100.00
74524;BME280;63074;44.696;10.358;2022-09-09T04:20:18;99483.22;;;15.66;100.00
74524;BME280;63074;44.696;10.358;2022-09-09T04:22:44;99479.78;;;15.50;100.00
74524;BME280;63074;44.696;10.358;2022-09-09T04:25:10;99474.25;;;16.05;100.00
74524;BME280;63074;44.696;10.358;2022-09-09T04:27:35;99473.69;;;16.08;100.00
74524;BME280;63074;44.696;10.358;2022-09-09T04:30:01;99478.00;;;16.38;100.00
74524;BME280;63074;44.696;10.358;2022-09-09T04:32:26;99480.66;;;16.43;100.00
74524;BME280;63074;44.696;10.358;2022-09-09T04:34:52;99467.19;;;16.57;100.00
74524;BME280;63074;44.696;10.358;2022-09-09T04:37:18;99460.03;;;16.71;100.00
74524;BME280;63074;44.696;10.358;2022-09-09T04:39:43;99466.88;;;16.87;100.00
74524;BME280;63074;44.696;10.358;2022-09-09T04:42:08;99459.06;;;16.57;100.00
74524;BME280;63074;44.696;10.358;2022-09-09T04:44:34;99459.69;;;16.48;100.00
74524;BME280;63074;44.696;10.358;2022-09-09T04:46:59;99459.75;;;16.43;100.00
74524;BME280;63074;44.696;10.358;2022-09-09T04:49:24;99467.94;;;16.67;100.00
74524;BME280;63074;44.696;10.358;2022-09-09T04:51:51;99469.50;;;16.73;100.00
74524;BME280;63074;44.696;10.358;2022-09-09T04:54:17;99468.88;;;16.52;100.00
74524;BME280;63074;44.696;10.358;2022-09-09T04:56:42;99466.63;;;16.60;100.00
74524;BME280;63074;44.696;10.358;2022-09-09T04:59:08;99471.63;;;16.47;100.00
74524;BME280;63074;44.696;10.358;2022-09-09T05:01:35;99478.50;;;16.40;100.00
74524;BME280;63074;44.696;10.358;2022-09-09T05:04:01;99472.28;;;16.39;100.00
74524;BME280;63074;44.696;10.358;2022-09-09T05:06:27;99471.53;;;16.58;100.00
74524;BME280;63074;44.696;10.358;2022-09-09T05:08:55;99486.31;;;16.17;100.00
74524;BME280;63074;44.696;10.358;2022-09-09T05:11:22;99482.13;;;16.30;100.00
74524;BME280;63074;44.696;10.358;2022-09-09T05:13:49;99477.13;;;16.42;100.00
74524;BME280;63074;44.696;10.358;2022-09-09T05:16:16;99473.28;;;16.72;100.00
74524;BME280;63074;44.696;10.358;2022-09-09T05:18:42;99487.84;;;16.52;100.00
74524;BME280;63074;44.696;10.358;2022-09-09T05:21:12;99478.84;;;16.57;100.00
74524;BME280;63074;44.696;10.358;2022-09-09T05:23:38;99478.03;;;16.57;100.00
74524;BME280;63074;44.696;10.358;2022-09-09T05:26:04;99488.09;;;16.80;100.00
74524;BME280;63074;44.696;10.358;2022-09-09T05:28:32;99489.22;;;17.21;100.00
74524;BME280;63074;44.696;10.358;2022-09-09T05:31:04;99493.31;;;17.19;100.00
74524;BME280;63074;44.696;10.358;2022-09-09T05:33:31;99499.13;;;17.31;100.00
74524;BME280;63074;44.696;10.358;2022-09-09T05:36:05;99506.63;;;17.58;100.00
74524;BME280;63074;44.696;10.358;2022-09-09T05:38:33;99504.28;;;17.70;100.00
74524;BME280;63074;44.696;10.358;2022-09-09T05:40:59;99502.06;;;17.72;100.00
74524;BME280;63074;44.696;10.358;2022-09-09T05:43:26;99508.69;;;17.85;100.00
74524;BME280;63074;44.696;10.358;2022-09-09T05:46:20;99508.91;;;17.88;100.00
74524;BME280;63074;44.696;10.358;2022-09-09T05:48:47;99507.59;;;18.00;100.00
74524;BME280;63074;44.696;10.358;2022-09-09T05:51:14;99512.91;;;17.91;100.00
74524;BME280;63074;44.696;10.358;2022-09-09T05:53:44;99509.00;;;17.97;100.00
74524;BME280;63074;44.696;10.358;2022-09-09T05:56:15;99512.59;;;18.11;100.00
74524;BME280;63074;44.696;10.358;2022-09-09T05:58:42;99518.13;;;18.20;100.00
74524;BME280;63074;44.696;10.358;2022-09-09T06:01:17;99522.53;;;18.02;100.00
74524;BME280;63074;44.696;10.358;2022-09-09T06:03:44;99521.88;;;18.24;100.00
74524;BME280;63074;44.696;10.358;2022-09-09T06:06:15;99529.34;;;18.32;100.00
74524;BME280;63074;44.696;10.358;2022-09-09T06:08:52;99523.91;;;18.65;100.00
74524;BME280;63074;44.696;10.358;2022-09-09T06:11:20;99526.81;;;18.82;100.00
74524;BME280;63074;44.696;10.358;2022-09-09T06:13:46;99516.94;;;18.86;100.00
74524;BME280;63074;44.696;10.358;2022-09-09T06:16:16;99523.06;;;19.19;100.00
74524;BME280;63074;44.696;10.358;2022-09-09T06:18:42;99523.88;;;19.19;99.82
74524;BME280;63074;44.696;10.358;2022-09-09T06:21:27;99516.56;;;19.42;98.12
74524;BME280;63074;44.696;10.358;2022-09-09T06:23:53;99520.91;;;19.43;99.29
74524;BME280;63074;44.696;10.358;2022-09-09T06:26:19;99521.91;;;19.47;99.77
74524;BME280;63074;44.696;10.358;2022-09-09T06:28:46;99530.09;;;19.61;97.30
74524;BME280;63074;44.696;10.358;2022-09-09T06:31:14;99525.00;;;19.68;99.54
74524;BME280;63074;44.696;10.358;2022-09-09T06:33:42;99530.53;;;19.77;98.73
74524;BME280;63074;44.696;10.358;2022-09-09T06:36:14;99529.78;;;19.85;97.54
74524;BME280;63074;44.696;10.358;2022-09-09T06:38:41;99534.69;;;19.97;97.02
74524;BME280;63074;44.696;10.358;2022-09-09T06:41:08;99526.25;;;20.07;94.58
74524;BME280;63074;44.696;10.358;2022-09-09T06:43:34;99527.94;;;20.16;95.08
74524;BME280;63074;44.696;10.358;2022-09-09T06:46:07;99529.66;;;20.12;100.00
74524;BME280;63074;44.696;10.358;2022-09-09T06:48:33;99521.28;;;19.64;100.00
74524;BME280;63074;44.696;10.358;2022-09-09T06:51:03;99528.72;;;19.72;100.00
74524;BME280;63074;44.696;10.358;2022-09-09T06:53:29;99526.38;;;19.79;100.00
74524;BME280;63074;44.696;10.358;2022-09-09T06:55:54;99532.09;;;19.92;100.00
74524;BME280;63074;44.696;10.358;2022-09-09T06:58:20;99525.69;;;19.96;100.00
74524;BME280;63074;44.696;10.358;2022-09-09T07:00:47;99532.81;;;20.06;100.00
74524;BME280;63074;44.696;10.358;2022-09-09T07:03:13;99524.66;;;19.83;100.00
74524;BME280;63074;44.696;10.358;2022-09-09T07:05:39;99525.47;;;19.84;100.00
74524;BME280;63074;44.696;10.358;2022-09-09T07:08:04;99530.28;;;20.09;100.00
74524;BME280;63074;44.696;10.358;2022-09-09T07:10:30;99523.53;;;20.07;100.00
74524;BME280;63074;44.696;10.358;2022-09-09T07:12:56;99530.56;;;20.30;100.00
74524;BME280;63074;44.696;10.358;2022-09-09T07:15:21;99526.34;;;20.24;100.00
74524;BME280;63074;44.696;10.358;2022-09-09T07:17:48;99521.56;;;20.21;100.00
74524;BME280;63074;44.696;10.358;2022-09-09T07:20:14;99532.19;;;20.31;100.00
74524;BME280;63074;44.696;10.358;2022-09-09T07:22:40;99522.34;;;20.44;97.42
74524;BME280;63074;44.696;10.358;2022-09-09T07:25:06;99530.97;;;20.37;100.00
74524;BME280;63074;44.696;10.358;2022-09-09T07:27:32;99530.91;;;20.60;100.00
74524;BME280;63074;44.696;10.358;2022-09-09T07:29:57;99519.00;;;20.55;100.00
74524;BME280;63074;44.696;10.358;2022-09-09T07:32:23;99511.78;;;20.29;100.00
74524;BME280;63074;44.696;10.358;2022-09-09T07:34:48;99524.44;;;20.47;100.00
74524;BME280;63074;44.696;10.358;2022-09-09T07:37:15;99520.75;;;20.51;100.00
74524;BME280;63074;44.696;10.358;2022-09-09T07:39:41;99524.41;;;20.38;100.00
74524;BME280;63074;44.696;10.358;2022-09-09T07:42:07;99528.00;;;20.47;100.00
74524;BME280;63074;44.696;10.358;2022-09-09T07:44:34;99529.94;;;20.55;100.00
74524;BME280;63074;44.696;10.358;2022-09-09T07:47:02;99524.63;;;20.90;100.00
74524;BME280;63074;44.696;10.358;2022-09-09T07:49:28;99522.16;;;20.80;100.00
74524;BME280;63074;44.696;10.358;2022-09-09T07:51:53;99525.06;;;20.75;100.00
74524;BME280;63074;44.696;10.358;2022-09-09T07:54:19;99524.34;;;20.61;100.00
74524;BME280;63074;44.696;10.358;2022-09-09T07:56:46;99523.94;;;20.76;100.00
74524;BME280;63074;44.696;10.358;2022-09-09T07:59:12;99524.97;;;20.97;100.00
74524;BME280;63074;44.696;10.358;2022-09-09T08:01:45;99532.78;;;21.21;100.00
74524;BME280;63074;44.696;10.358;2022-09-09T08:04:17;99528.34;;;20.94;100.00
74524;BME280;63074;44.696;10.358;2022-09-09T08:06:50;99526.75;;;21.02;100.00
74524;BME280;63074;44.696;10.358;2022-09-09T08:09:18;99525.63;;;21.03;100.00
74524;BME280;63074;44.696;10.358;2022-09-09T08:11:44;99529.63;;;20.97;100.00
74524;BME280;63074;44.696;10.358;2022-09-09T08:14:11;99538.13;;;20.95;100.00
74524;BME280;63074;44.696;10.358;2022-09-09T08:16:39;99540.66;;;21.22;100.00
74524;BME280;63074;44.696;10.358;2022-09-09T08:19:05;99540.53;;;21.53;100.00
74524;BME280;63074;44.696;10.358;2022-09-09T08:21:33;99540.38;;;21.67;100.00
74524;BME280;63074;44.696;10.358;2022-09-09T08:24:00;99546.53;;;21.90;100.00
74524;BME280;63074;44.696;10.358;2022-09-09T08:26:32;99547.16;;;22.13;100.00
74524;BME280;63074;44.696;10.358;2022-09-09T08:29:00;99548.13;;;22.17;100.00
74524;BME280;63074;44.696;10.358;2022-09-09T08:31:32;99552.16;;;21.94;100.00
74524;BME280;63074;44.696;10.358;2022-09-09T08:33:59;99552.47;;;21.92;100.00
74524;BME280;63074;44.696;10.358;2022-09-09T08:36:26;99555.19;;;22.27;100.00
74524;BME280;63074;44.696;10.358;2022-09-09T08:38:55;99558.72;;;22.27;100.00
74524;BME280;63074;44.696;10.358;2022-09-09T08:50:13;99568.88;;;22.27;100.00
74524;BME280;63074;44.696;10.358;2022-09-09T08:55:41;99566.59;;;22.46;100.00
74524;BME280;63074;44.696;10.358;2022-09-09T08:58:20;99565.91;;;22.57;100.00
74524;BME280;63074;44.696;10.358;2022-09-09T09:03:34;99564.72;;;22.84;100.00
74524;BME280;63074;44.696;10.358;2022-09-09T09:08:46;99564.38;;;22.86;100.00
74524;BME280;63074;44.696;10.358;2022-09-09T09:11:18;99564.25;;;23.41;100.00
74524;BME280;63074;44.696;10.358;2022-09-09T09:14:03;99565.31;;;23.28;100.00
74524;BME280;63074;44.696;10.358;2022-09-09T09:16:50;99556.84;;;23.42;100.00
74524;BME280;63074;44.696;10.358;2022-09-09T09:19:17;99560.69;;;23.70;100.00
74524;BME280;63074;44.696;10.358;2022-09-09T09:21:44;99566.28;;;23.62;100.00
74524;BME280;63074;44.696;10.358;2022-09-09T09:27:40;99564.03;;;23.26;100.00
74524;BME280;63074;44.696;10.358;2022-09-09T09:30:13;99562.78;;;23.73;100.00
74524;BME280;63074;44.696;10.358;2022-09-09T09:32:44;99573.97;;;23.89;100.00
74524;BME280;63074;44.696;10.358;2022-09-09T09:35:13;99566.84;;;24.09;100.00
74524;BME280;63074;44.696;10.358;2022-09-09T09:37:41;99573.44;;;23.96;100.00
74524;BME280;63074;44.696;10.358;2022-09-09T09:40:12;99567.00;;;23.71;100.00
74524;BME280;63074;44.696;10.358;2022-09-09T09:42:48;99576.25;;;24.41;100.00
74524;BME280;63074;44.696;10.358;2022-09-09T09:45:20;99575.66;;;24.35;100.00
74524;BME280;63074;44.696;10.358;2022-09-09T09:48:01;99574.00;;;24.55;100.00
74524;BME280;63074;44.696;10.358;2022-09-09T09:50:28;99571.34;;;24.46;100.00
74524;BME280;63074;44.696;10.358;2022-09-09T09:52:56;99570.19;;;24.80;100.00
74524;BME280;63074;44.696;10.358;2022-09-09T09:55:23;99576.25;;;24.41;100.00
74524;BME280;63074;44.696;10.358;2022-09-09T09:57:49;99577.72;;;24.83;100.00
74524;BME280;63074;44.696;10.358;2022-09-09T10:00:21;99579.69;;;24.83;100.00
74524;BME280;63074;44.696;10.358;2022-09-09T10:02:48;99571.63;;;24.53;100.00
74524;BME280;63074;44.696;10.358;2022-09-09T10:05:22;99571.63;;;24.66;100.00
74524;BME280;63074;44.696;10.358;2022-09-09T10:08:09;99574.09;;;24.46;100.00
74524;BME280;63074;44.696;10.358;2022-09-09T10:11:23;99571.94;;;24.52;100.00
74524;BME280;63074;44.696;10.358;2022-09-09T10:19:03;99557.59;;;25.40;100.00
74524;BME280;63074;44.696;10.358;2022-09-09T10:30:00;99575.19;;;24.33;100.00
74524;BME280;63074;44.696;10.358;2022-09-09T10:32:38;99570.31;;;24.39;100.00
74524;BME280;63074;44.696;10.358;2022-09-09T10:40:46;99568.75;;;24.50;100.00
74524;BME280;63074;44.696;10.358;2022-09-09T10:52:19;99583.75;;;26.27;94.38
74524;BME280;63074;44.696;10.358;2022-09-09T10:55:00;99572.28;;;25.97;96.76
74524;BME280;63074;44.696;10.358;2022-09-09T10:57:41;99574.88;;;24.92;93.94
74524;BME280;63074;44.696;10.358;2022-09-09T11:02:56;99567.16;;;25.83;97.29
74524;BME280;63074;44.696;10.358;2022-09-09T11:05:39;99560.53;;;25.72;96.53
74524;BME280;63074;44.696;10.358;2022-09-09T11:08:09;99566.28;;;26.35;97.07
74524;BME280;63074;44.696;10.358;2022-09-09T11:11:25;99575.69;;;25.66;100.00
74524;BME280;63074;44.696;10.358;2022-09-09T11:14:09;99569.03;;;24.81;100.00
74524;BME280;63074;44.696;10.358;2022-09-09T11:16:56;99572.09;;;24.68;100.00
74524;BME280;63074;44.696;10.358;2022-09-09T11:19:45;99571.09;;;25.57;100.00
74524;BME280;63074;44.696;10.358;2022-09-09T11:24:50;99563.38;;;25.87;98.21
74524;BME280;63074;44.696;10.358;2022-09-09T11:27:21;99561.53;;;26.95;93.66
74524;BME280;63074;44.696;10.358;2022-09-09T11:30:10;99565.22;;;26.39;95.83
74524;BME280;63074;44.696;10.358;2022-09-09T11:32:45;99563.88;;;26.05;97.70
74524;BME280;63074;44.696;10.358;2022-09-09T11:41:09;99562.00;;;26.81;95.54
74524;BME280;63074;44.696;10.358;2022-09-09T11:43:46;99562.00;;;26.81;93.13
74524;BME280;63074;44.696;10.358;2022-09-09T11:46:14;99560.22;;;26.73;90.23
74524;BME280;63074;44.696;10.358;2022-09-09T11:48:46;99554.16;;;26.51;90.70
74524;BME280;63074;44.696;10.358;2022-09-09T11:51:27;99547.50;;;27.15;86.63
74524;BME280;63074;44.696;10.358;2022-09-09T11:53:58;99548.75;;;28.07;81.43
74524;BME280;63074;44.696;10.358;2022-09-09T11:56:34;99545.84;;;26.95;85.79
74524;BME280;63074;44.696;10.358;2022-09-09T11:59:29;99550.63;;;27.14;84.09
74524;BME280;63074;44.696;10.358;2022-09-09T12:01:59;99557.75;;;27.50;82.77
74524;BME280;63074;44.696;10.358;2022-09-09T12:04:34;99549.09;;;28.44;78.91
74524;BME280;63074;44.696;10.358;2022-09-09T12:07:05;99544.41;;;28.26;76.07
74524;BME280;63074;44.696;10.358;2022-09-09T12:09:51;99530.81;;;27.98;78.25
74524;BME280;63074;44.696;10.358;2022-09-09T12:18:20;99546.06;;;28.11;74.14
74524;BME280;63074;44.696;10.358;2022-09-09T12:24:10;99521.28;;;28.14;71.85
74524;BME280;63074;44.696;10.358;2022-09-09T12:27:23;99519.03;;;28.85;63.80
74524;BME280;63074;44.696;10.358;2022-09-09T12:30:08;99518.38;;;29.44;59.03
74524;BME280;63074;44.696;10.358;2022-09-09T12:32:35;99523.84;;;29.14;65.62
74524;BME280;63074;44.696;10.358;2022-09-09T12:35:02;99515.84;;;29.62;64.03
74524;BME280;63074;44.696;10.358;2022-09-09T12:37:38;99517.66;;;29.51;66.08
74524;BME280;63074;44.696;10.358;2022-09-09T12:40:29;99508.63;;;29.87;64.44
74524;BME280;63074;44.696;10.358;2022-09-09T12:42:55;99503.78;;;30.11;60.57
74524;BME280;63074;44.696;10.358;2022-09-09T12:45:25;99513.97;;;29.17;64.68
74524;BME280;63074;44.696;10.358;2022-09-09T12:47:55;99521.66;;;30.17;62.11
74524;BME280;63074;44.696;10.358;2022-09-09T12:50:33;99535.69;;;31.16;57.25
74524;BME280;63074;44.696;10.358;2022-09-09T12:55:56;99525.56;;;30.94;56.25
74524;BME280;63074;44.696;10.358;2022-09-09T12:58:22;99518.69;;;28.90;64.70
74524;BME280;63074;44.696;10.358;2022-09-09T13:00:50;99523.75;;;28.84;65.11
74524;BME280;63074;44.696;10.358;2022-09-09T13:03:18;99514.69;;;28.42;69.23
74524;BME280;63074;44.696;10.358;2022-09-09T13:05:45;99503.81;;;28.10;69.68
74524;BME280;63074;44.696;10.358;2022-09-09T13:08:13;99505.91;;;27.05;74.90
74524;BME280;63074;44.696;10.358;2022-09-09T13:10:55;99534.88;;;26.83;75.14
74524;BME280;63074;44.696;10.358;2022-09-09T13:13:27;99534.97;;;26.71;75.30
74524;BME280;63074;44.696;10.358;2022-09-09T13:15:58;99515.88;;;27.09;74.93
74524;BME280;63074;44.696;10.358;2022-09-09T13:18:28;99519.16;;;26.99;76.56
74524;BME280;63074;44.696;10.358;2022-09-09T13:20:55;99532.19;;;26.39;76.97
74524;BME280;63074;44.696;10.358;2022-09-09T13:23:28;99520.22;;;27.10;76.43
74524;BME280;63074;44.696;10.358;2022-09-09T13:25:59;99517.88;;;27.63;73.09
74524;BME280;63074;44.696;10.358;2022-09-09T13:28:28;99514.56;;;27.38;72.90
74524;BME280;63074;44.696;10.358;2022-09-09T13:33:32;99493.34;;;28.84;64.40
74524;BME280;63074;44.696;10.358;2022-09-09T13:38:32;99501.16;;;29.58;59.00
74524;BME280;63074;44.696;10.358;2022-09-09T13:43:27;99500.63;;;31.63;52.50
74524;BME280;63074;44.696;10.358;2022-09-09T13:46:01;99497.41;;;30.92;53.08
74524;BME280;63074;44.696;10.358;2022-09-09T13:48:27;99496.03;;;32.06;50.94
74524;BME280;63074;44.696;10.358;2022-09-09T13:50:55;99493.28;;;32.13;49.68
74524;BME280;63074;44.696;10.358;2022-09-09T13:53:20;99485.03;;;32.24;48.82
74524;BME280;63074;44.696;10.358;2022-09-09T13:55:46;99485.03;;;33.19;46.72
74524;BME280;63074;44.696;10.358;2022-09-09T13:58:16;99485.44;;;33.11;45.98
74524;BME280;63074;44.696;10.358;2022-09-09T14:00:43;99473.91;;;33.12;47.15
74524;BME280;63074;44.696;10.358;2022-09-09T14:03:09;99478.28;;;33.17;45.68
74524;BME280;63074;44.696;10.358;2022-09-09T14:05:35;99476.03;;;33.96;43.90
74524;BME280;63074;44.696;10.358;2022-09-09T14:08:03;99478.13;;;33.67;42.34
74524;BME280;63074;44.696;10.358;2022-09-09T14:10:29;99475.88;;;34.17;42.44
74524;BME280;63074;44.696;10.358;2022-09-09T14:12:55;99479.81;;;33.25;43.89
74524;BME280;63074;44.696;10.358;2022-09-09T14:15:21;99475.50;;;32.67;46.07
74524;BME280;63074;44.696;10.358;2022-09-09T14:17:47;99473.75;;;33.62;43.61
74524;BME280;63074;44.696;10.358;2022-09-09T14:20:14;99478.69;;;34.13;41.88
74524;BME280;63074;44.696;10.358;2022-09-09T14:22:41;99481.34;;;33.54;43.19
74524;BME280;63074;44.696;10.358;2022-09-09T14:25:07;99482.22;;;34.25;42.43
74524;BME280;63074;44.696;10.358;2022-09-09T14:27:32;99489.75;;;33.26;45.01
74524;BME280;63074;44.696;10.358;2022-09-09T14:29:58;99486.03;;;33.82;42.67
74524;BME280;63074;44.696;10.358;2022-09-09T14:32:25;99488.44;;;33.77;42.77
74524;BME280;63074;44.696;10.358;2022-09-09T14:34:51;99494.06;;;34.39;41.24
74524;BME280;63074;44.696;10.358;2022-09-09T14:37:17;99496.41;;;35.00;39.59
74524;BME280;63074;44.696;10.358;2022-09-09T14:39:43;99499.78;;;35.22;39.29
74524;BME280;63074;44.696;10.358;2022-09-09T14:42:10;99503.25;;;35.70;38.54
74524;BME280;63074;44.696;10.358;2022-09-09T14:44:36;99505.50;;;33.90;41.39
74524;BME280;63074;44.696;10.358;2022-09-09T14:47:04;99505.97;;;34.50;41.00
74524;BME280;63074;44.696;10.358;2022-09-09T14:49:29;99499.59;;;33.70;43.17
74524;BME280;63074;44.696;10.358;2022-09-09T14:51:55;99503.69;;;35.28;39.75
74524;BME280;63074;44.696;10.358;2022-09-09T14:54:20;99497.88;;;35.11;38.82
74524;BME280;63074;44.696;10.358;2022-09-09T14:56:48;99496.94;;;33.31;43.52